Terminal Aerodrome Forecast
Issued by NWS Caribou, ME

Home | Current Version | Previous Version | Text Only | Print | Product List | Glossary On
Versions: 1 2 3 4 5 6 7 8 9 10 11 12 13 14 15 16
000
FTUS41 KCAR 182331
TAFBGR
TAF
KBGR 182331Z 1900/1924 05005KT P6SM OVC040
     FM190300 VRB03KT P6SM OVC030
     FM190630 VRB02KT 2SM -SN OVC020
     FM191100 VRB02KT 5SM -SHSN OVC015
     FM191600 VRB03KT P6SM BKN025
     FM191900 26004KT P6SM BKN035=

USA.gov is the U.S. government's official web portal to all federal, state and local government web resources and services.